Terminal Aerodrome Forecast
Issued by NWS Memphis, TN

Home | Current Version | Previous Version | Text Only | Print | Product List | Glossary On
Versions: 1 2 3 4 5 6 7 8 9 10 11 12 13 14 15 16 17 18 19 20 21 22 23 24 25 26 27
708
FTUS44 KMEG 242321
TAFMEM
TAF
KMEM 242321Z 2500/2524 16010KT P6SM FEW250
     FM250300 18010G16KT P6SM FEW040 SCT250 WS020/21050KT
     FM251100 21010KT P6SM VCSH BKN015 OVC025
     FM251800 24010G16KT P6SM VCSH BKN030 OVC150
     FM252300 28010KT P6SM FEW035 BKN250=

USA.gov is the U.S. government's official web portal to all federal, state and local government web resources and services.